createdAt,value
2024-03-02T00:02:04.587Z,2.70
2024-03-02T00:04:32.460Z,2.72
2024-03-02T00:07:01.869Z,2.90
2024-03-02T00:09:29.848Z,2.88
2024-03-02T00:11:57.780Z,2.25
2024-03-02T00:14:26.187Z,2.22
2024-03-02T00:16:54.458Z,2.70
2024-03-02T00:19:22.330Z,3.40
2024-03-02T00:21:50.377Z,2.58
2024-03-02T00:24:23.727Z,2.53
2024-03-02T00:26:52.148Z,2.20
2024-03-02T00:29:22.252Z,2.10
2024-03-02T00:31:52.928Z,2.70
2024-03-02T00:34:21.123Z,2.67
2024-03-02T00:36:49.166Z,2.22
2024-03-02T00:39:18.953Z,2.45
2024-03-02T00:41:48.833Z,3.17
2024-03-02T00:44:18.279Z,2.15
2024-03-02T00:46:46.646Z,2.03
2024-03-02T00:49:21.769Z,2.53
2024-03-02T00:51:51.219Z,2.30
2024-03-02T00:54:22.450Z,2.85
2024-03-02T00:56:52.190Z,2.33
2024-03-02T00:59:20.101Z,2.13
2024-03-02T01:01:47.978Z,2.10
2024-03-02T01:04:16.159Z,2.22
2024-03-02T01:06:44.611Z,2.42
2024-03-02T01:09:13.508Z,2.30
2024-03-02T01:11:41.696Z,2.50
2024-03-02T01:14:11.418Z,2.25
2024-03-02T01:16:39.248Z,2.50
2024-03-02T01:19:07.166Z,2.33
2024-03-02T01:21:35.100Z,2.03
2024-03-02T01:24:03.099Z,2.65
2024-03-02T01:26:31.904Z,2.13
2024-03-02T01:28:59.704Z,2.58
2024-03-02T01:31:28.909Z,2.30
2024-03-02T01:33:57.059Z,2.30
2024-03-02T01:36:24.963Z,2.10
2024-03-02T01:38:52.871Z,2.38
2024-03-02T01:41:20.829Z,2.30
2024-03-02T01:43:48.668Z,1.73
2024-03-02T01:46:16.522Z,2.25
2024-03-02T01:48:45.681Z,1.88
2024-03-02T01:51:13.748Z,2.50
2024-03-02T01:53:41.629Z,2.17
2024-03-02T01:56:09.554Z,2.22
2024-03-02T01:58:37.395Z,2.33
2024-03-02T02:01:05.708Z,2.17
2024-03-02T02:03:33.660Z,2.17
2024-03-02T02:06:02.943Z,2.08
2024-03-02T02:08:30.755Z,2.25
2024-03-02T02:10:58.642Z,2.88
2024-03-02T02:13:26.487Z,2.22
2024-03-02T02:15:54.816Z,2.35
2024-03-02T02:18:22.891Z,2.47
2024-03-02T02:20:50.768Z,2.42
2024-03-02T02:23:19.957Z,2.00
2024-03-02T02:25:47.806Z,2.83
2024-03-02T02:28:15.638Z,2.28
2024-03-02T02:30:43.842Z,2.45
2024-03-02T02:33:11.809Z,2.40
2024-03-02T02:35:39.724Z,2.70
2024-03-02T02:38:07.957Z,2.55
2024-03-02T02:40:37.095Z,2.38
2024-03-02T02:43:05.811Z,2.47
2024-03-02T02:45:33.723Z,2.33
2024-03-02T02:48:03.021Z,3.10
2024-03-02T02:50:30.883Z,2.17
2024-03-02T02:52:58.706Z,2.53
2024-03-02T02:55:26.501Z,2.42
2024-03-02T02:57:55.730Z,2.83
2024-03-02T03:00:24.209Z,2.60
2024-03-02T03:02:52.157Z,2.80
2024-03-02T03:05:20.788Z,2.10
2024-03-02T03:07:50.962Z,2.40
2024-03-02T03:10:19.415Z,2.20
2024-03-02T03:12:47.912Z,2.60
2024-03-02T03:15:17.561Z,2.25
2024-03-02T03:17:47.122Z,2.70
2024-03-02T03:20:16.376Z,2.40
2024-03-02T03:22:44.985Z,2.50
2024-03-02T03:25:13.477Z,2.65
2024-03-02T03:27:42.823Z,2.20
2024-03-02T03:30:11.956Z,2.40
2024-03-02T03:32:41.234Z,3.60
2024-03-02T03:35:10.054Z,2.80
2024-03-02T03:37:38.042Z,2.20
2024-03-02T03:40:11.430Z,2.47
2024-03-02T03:42:40.186Z,2.47
2024-03-02T03:45:09.241Z,2.53
2024-03-02T03:47:37.198Z,2.60
2024-03-02T03:50:08.553Z,2.35
2024-03-02T03:52:36.763Z,2.47
2024-03-02T03:55:06.523Z,2.47
2024-03-02T03:57:34.570Z,2.08
2024-03-02T04:00:02.506Z,2.03
2024-03-02T04:02:30.409Z,2.63
2024-03-02T04:04:58.207Z,2.30
2024-03-02T04:07:27.329Z,2.50
2024-03-02T04:09:55.347Z,2.90
2024-03-02T04:12:23.280Z,2.50
2024-03-02T04:14:51.565Z,2.72
2024-03-02T04:17:19.358Z,2.30
2024-03-02T04:19:47.162Z,2.60
2024-03-02T04:22:18.847Z,2.20
2024-03-02T04:24:54.259Z,2.38
2024-03-02T04:27:22.208Z,2.67
2024-03-02T04:29:50.094Z,2.28
2024-03-02T04:32:18.458Z,2.17
2024-03-02T04:34:46.291Z,2.30
2024-03-02T04:37:15.422Z,2.22
2024-03-02T04:39:43.301Z,2.63
2024-03-02T04:42:12.650Z,3.00
2024-03-02T04:44:40.513Z,3.00
2024-03-02T04:47:08.362Z,2.45
2024-03-02T04:49:36.314Z,2.35
2024-03-02T04:52:04.593Z,2.92
2024-03-02T04:54:32.449Z,2.35
2024-03-02T04:57:00.354Z,2.50
2024-03-02T04:59:29.503Z,2.70
2024-03-02T05:01:57.348Z,2.55
2024-03-02T05:04:25.153Z,2.53
2024-03-02T05:06:55.842Z,2.22
2024-03-02T05:09:23.850Z,2.80
2024-03-02T05:12:09.083Z,2.85
2024-03-02T05:14:38.554Z,2.42
2024-03-02T05:17:06.520Z,2.50
2024-03-02T05:19:34.322Z,3.10
2024-03-02T05:22:02.223Z,2.65
2024-03-02T05:24:30.143Z,2.90
2024-03-02T05:26:58.243Z,2.72
2024-03-02T05:29:26.258Z,2.88
2024-03-02T05:31:55.397Z,3.03
2024-03-02T05:34:23.590Z,2.45
2024-03-02T05:36:51.540Z,2.63
2024-03-02T05:39:19.401Z,3.03
2024-03-02T05:41:47.227Z,2.75
2024-03-02T05:44:16.583Z,2.83
2024-03-02T05:46:47.406Z,2.85
2024-03-02T05:49:16.596Z,2.75
2024-03-02T05:51:44.553Z,3.17
2024-03-02T05:54:12.440Z,2.65
2024-03-02T05:56:40.350Z,2.58
2024-03-02T05:59:13.908Z,2.42
2024-03-02T06:01:42.165Z,2.55
2024-03-02T06:04:10.081Z,2.78
2024-03-02T06:06:39.852Z,2.25
2024-03-02T06:09:09.321Z,2.47
2024-03-02T06:11:37.558Z,2.30
2024-03-02T06:14:05.580Z,2.70
2024-03-02T06:16:33.600Z,2.83
2024-03-02T06:19:01.718Z,2.47
2024-03-02T06:21:30.711Z,2.80
2024-03-02T06:24:00.014Z,2.35
2024-03-02T06:26:27.975Z,2.13
2024-03-02T06:28:55.910Z,2.80
2024-03-02T06:31:24.194Z,2.53
2024-03-02T06:33:51.090Z,2.55
2024-03-02T06:36:18.986Z,2.25
2024-03-02T06:38:46.845Z,2.10
2024-03-02T06:41:16.055Z,3.35
2024-03-02T06:43:43.938Z,2.38
2024-03-02T06:46:15.645Z,2.40
2024-03-02T06:48:43.657Z,2.00
2024-03-02T06:51:12.103Z,2.95
2024-03-02T06:53:39.935Z,2.55
2024-03-02T06:56:10.463Z,2.28
2024-03-02T06:58:39.644Z,2.45
2024-03-02T07:01:08.339Z,2.20
2024-03-02T07:03:36.363Z,2.70
2024-03-02T07:06:04.479Z,2.30
2024-03-02T07:08:32.355Z,2.40
2024-03-02T07:11:00.467Z,1.95
2024-03-02T07:13:28.348Z,2.13
2024-03-02T07:16:23.707Z,2.25
2024-03-02T07:18:53.045Z,2.05
2024-03-02T07:21:21.109Z,2.20
2024-03-02T07:23:48.962Z,2.40
2024-03-02T07:28:49.525Z,2.75
2024-03-02T07:31:18.752Z,2.10
2024-03-02T07:33:47.700Z,2.35
2024-03-02T07:36:15.988Z,2.33
2024-03-02T07:38:45.826Z,2.10
2024-03-02T07:41:14.459Z,1.98
2024-03-02T07:43:42.909Z,3.20
2024-03-02T07:46:10.823Z,2.40
2024-03-02T07:48:40.280Z,2.97
2024-03-02T07:51:08.265Z,2.72
2024-03-02T07:53:37.528Z,3.15
2024-03-02T07:56:07.101Z,2.92
2024-03-02T07:58:36.556Z,3.05
2024-03-02T08:01:04.781Z,2.67
2024-03-02T08:03:35.828Z,3.15
2024-03-02T08:06:06.479Z,2.92
2024-03-02T08:08:35.263Z,2.75
2024-03-02T08:11:03.965Z,3.08
2024-03-02T08:13:31.775Z,3.13
2024-03-02T08:15:59.822Z,2.33
2024-03-02T08:18:27.825Z,3.03
2024-03-02T08:20:55.784Z,2.88
2024-03-02T08:23:24.975Z,2.42
2024-03-02T08:25:52.995Z,2.60
2024-03-02T08:28:21.273Z,2.92
2024-03-02T08:30:49.175Z,2.78
2024-03-02T08:33:17.096Z,2.90
2024-03-02T08:35:45.265Z,3.08
2024-03-02T08:38:13.331Z,2.90
2024-03-02T08:40:42.746Z,3.17
2024-03-02T08:43:10.808Z,2.80
2024-03-02T08:45:40.704Z,2.90
2024-03-02T08:48:11.765Z,3.03
2024-03-02T08:50:38.729Z,3.25
2024-03-02T08:53:06.874Z,3.00
2024-03-02T08:55:34.748Z,2.67
2024-03-02T08:58:04.467Z,2.75
2024-03-02T09:00:32.624Z,2.85
2024-03-02T09:03:01.122Z,3.05
2024-03-02T09:05:29.076Z,2.25
2024-03-02T09:07:56.914Z,2.80
2024-03-02T09:10:27.680Z,2.90
2024-03-02T09:12:56.763Z,2.78
2024-03-02T09:15:26.003Z,2.53
2024-03-02T09:17:54.491Z,2.55
2024-03-02T09:20:22.474Z,2.63
2024-03-02T09:22:50.602Z,2.63
2024-03-02T09:25:18.497Z,2.42
2024-03-02T09:27:46.611Z,2.58
2024-03-02T09:30:15.863Z,4.75
2024-03-02T09:32:46.980Z,5.25
2024-03-02T09:35:15.221Z,5.22
2024-03-02T09:37:43.049Z,5.00
2024-03-02T09:40:12.344Z,5.18
2024-03-02T09:42:40.262Z,5.18
2024-03-02T09:45:08.735Z,5.20
2024-03-02T09:47:36.760Z,4.95
2024-03-02T09:50:06.658Z,4.80
2024-03-02T09:52:35.802Z,4.78
2024-03-02T09:55:06.601Z,5.20
2024-03-02T09:57:35.530Z,4.60
2024-03-02T10:00:04.219Z,4.13
2024-03-02T10:02:32.073Z,4.78
2024-03-02T10:05:00.348Z,4.45
2024-03-02T10:07:29.906Z,4.72
2024-03-02T10:09:57.841Z,3.90
2024-03-02T10:12:25.785Z,4.70
2024-03-02T10:15:08.601Z,4.53
2024-03-02T10:17:36.625Z,4.28
2024-03-02T10:20:25.702Z,4.47
2024-03-02T10:22:54.995Z,4.47
2024-03-02T10:25:43.128Z,4.57
2024-03-02T10:28:19.180Z,4.22
2024-03-02T10:30:50.363Z,4.50
2024-03-02T10:33:20.098Z,3.38
2024-03-02T10:35:49.885Z,4.57
2024-03-02T10:38:19.869Z,3.40
2024-03-02T10:40:49.319Z,3.40
2024-03-02T10:43:17.827Z,4.18
2024-03-02T10:45:47.741Z,3.72
2024-03-02T10:48:15.632Z,3.40
2024-03-02T10:50:43.869Z,3.22
2024-03-02T10:53:11.938Z,3.40
2024-03-02T10:55:41.637Z,3.30
2024-03-02T10:58:16.346Z,4.43
2024-03-02T11:00:47.324Z,2.83
2024-03-02T11:03:17.378Z,3.65
2024-03-02T11:05:47.144Z,3.38
2024-03-02T11:08:27.362Z,3.08
2024-03-02T11:11:02.391Z,3.15
2024-03-02T11:13:37.705Z,3.25
2024-03-02T11:18:37.079Z,2.67
2024-03-02T11:21:06.055Z,2.67
2024-03-02T11:23:34.967Z,2.50
2024-03-02T11:26:22.318Z,3.05
2024-03-02T11:28:50.399Z,2.42
2024-03-02T11:31:18.609Z,2.58
2024-03-02T11:33:46.525Z,2.30
2024-03-02T11:36:14.509Z,2.80
2024-03-02T11:38:46.496Z,2.55
2024-03-02T11:41:15.413Z,2.30
2024-03-02T11:43:46.617Z,2.05
2024-03-02T11:46:14.676Z,2.08
2024-03-02T11:48:42.689Z,1.50
2024-03-02T11:51:10.564Z,1.92
2024-03-02T11:53:41.987Z,1.85
2024-03-02T11:56:12.975Z,1.70
2024-03-02T11:58:42.522Z,2.50
2024-03-02T12:01:13.092Z,1.60
2024-03-02T12:03:41.456Z,2.10
2024-03-02T12:06:09.473Z,1.40
2024-03-02T12:08:40.527Z,2.80
2024-03-02T12:11:08.524Z,1.70
2024-03-02T12:13:36.450Z,1.80
2024-03-02T12:16:04.760Z,1.92
2024-03-02T12:18:34.128Z,2.05
2024-03-02T12:21:04.065Z,2.45
2024-03-02T12:23:31.962Z,1.80
2024-03-02T12:25:59.848Z,2.05
2024-03-02T12:28:28.074Z,1.75
2024-03-02T12:30:56.258Z,1.63
2024-03-02T12:33:24.668Z,1.60
2024-03-02T12:35:53.882Z,2.05
2024-03-02T12:38:21.906Z,2.30
2024-03-02T12:40:50.906Z,1.95
2024-03-02T12:43:19.026Z,1.70
2024-03-02T12:45:47.521Z,2.10
2024-03-02T12:48:16.419Z,1.77
2024-03-02T12:50:45.445Z,1.40
2024-03-02T12:53:18.517Z,1.77
2024-03-02T12:55:46.823Z,2.03
2024-03-02T12:58:19.567Z,2.65
2024-03-02T13:00:47.984Z,1.70
2024-03-02T13:03:19.096Z,2.42
2024-03-02T13:05:51.560Z,2.00
2024-03-02T13:08:20.961Z,1.85
2024-03-02T13:10:49.065Z,1.80
2024-03-02T13:13:17.139Z,1.30
2024-03-02T13:15:45.338Z,1.35
2024-03-02T13:18:13.741Z,1.50
2024-03-02T13:20:42.324Z,1.70
2024-03-02T13:23:11.372Z,1.50
2024-03-02T13:25:40.815Z,1.42
2024-03-02T13:28:10.092Z,1.40
2024-03-02T13:30:38.486Z,1.50
2024-03-02T13:33:06.733Z,1.48
2024-03-02T13:35:34.634Z,1.35
2024-03-02T13:38:02.593Z,1.42
2024-03-02T13:40:31.881Z,1.40
2024-03-02T13:43:01.229Z,1.48
2024-03-02T13:45:29.218Z,1.60
2024-03-02T13:47:57.434Z,1.52
2024-03-02T13:50:25.395Z,1.50
2024-03-02T13:52:53.278Z,1.30
2024-03-02T13:55:21.287Z,1.45
2024-03-02T13:57:49.966Z,2.00
2024-03-02T14:00:20.014Z,1.85
2024-03-02T14:02:47.928Z,1.30
2024-03-02T14:05:15.848Z,1.63
2024-03-02T14:07:44.003Z,1.67
2024-03-02T14:10:12.280Z,1.60
2024-03-02T14:12:40.370Z,1.40
2024-03-02T14:15:09.423Z,1.60
2024-03-02T14:17:38.596Z,2.58
2024-03-02T14:20:08.000Z,3.22
2024-03-02T14:22:36.310Z,2.92
2024-03-02T14:25:04.462Z,2.88
2024-03-02T14:27:44.448Z,2.78
2024-03-02T14:30:20.480Z,3.20
2024-03-02T14:32:49.625Z,2.67
2024-03-02T14:35:17.438Z,2.80
2024-03-02T14:37:45.375Z,2.40
2024-03-02T14:40:14.590Z,2.83
2024-03-02T14:42:43.230Z,2.15
2024-03-02T14:45:11.663Z,2.53
2024-03-02T14:47:39.582Z,2.22
2024-03-02T14:50:10.874Z,2.30
2024-03-02T14:52:38.780Z,1.90
2024-03-02T14:55:09.043Z,2.33
2024-03-02T14:57:37.236Z,2.30
2024-03-02T15:00:08.747Z,1.90
2024-03-02T15:02:36.987Z,1.95
2024-03-02T15:05:06.821Z,1.60
2024-03-02T15:07:35.988Z,1.77
2024-03-02T15:10:05.452Z,1.88
2024-03-02T15:12:33.495Z,1.67
2024-03-02T15:15:01.413Z,1.60
2024-03-02T15:17:29.422Z,2.03
2024-03-02T15:19:57.363Z,1.90
2024-03-02T15:22:26.050Z,1.70
2024-03-02T15:24:55.604Z,1.67
2024-03-02T15:27:23.483Z,1.48
2024-03-02T15:29:53.224Z,1.75
2024-03-02T15:32:21.132Z,1.33
2024-03-02T15:34:49.132Z,1.50
2024-03-02T15:37:17.149Z,1.50
2024-03-02T15:39:45.214Z,1.52
2024-03-02T15:42:14.440Z,1.60
2024-03-02T15:44:45.014Z,1.10
2024-03-02T15:47:13.150Z,1.40
2024-03-02T15:49:41.094Z,1.48
2024-03-02T15:52:09.090Z,1.85
2024-03-02T15:54:37.130Z,1.58
2024-03-02T15:57:05.435Z,1.58
2024-03-02T15:59:34.801Z,1.55
2024-03-02T16:02:02.765Z,1.70
2024-03-02T16:04:30.689Z,1.95
2024-03-02T16:06:58.638Z,1.45
2024-03-02T16:09:26.714Z,2.00
2024-03-02T16:11:54.653Z,1.42
2024-03-02T16:14:22.514Z,1.33
2024-03-02T16:16:51.758Z,1.23
2024-03-02T16:19:29.165Z,1.20
2024-03-02T16:22:00.904Z,1.25
2024-03-02T16:24:29.040Z,1.30
2024-03-02T16:26:57.091Z,1.38
2024-03-02T16:29:24.953Z,1.17
2024-03-02T16:31:54.066Z,1.30
2024-03-02T16:34:21.979Z,1.17
2024-03-02T16:36:49.838Z,1.58
2024-03-02T16:39:17.662Z,1.38
2024-03-02T16:41:48.187Z,1.10
2024-03-02T16:44:16.216Z,1.40
2024-03-02T16:46:46.110Z,1.58
2024-03-02T16:49:15.564Z,1.55
2024-03-02T16:51:43.885Z,1.10
2024-03-02T16:54:11.776Z,1.50
2024-03-02T16:56:43.005Z,1.20
2024-03-02T16:59:11.453Z,1.38
2024-03-02T17:01:40.088Z,1.50
2024-03-02T17:04:08.462Z,1.90
2024-03-02T17:06:38.067Z,1.60
2024-03-02T17:09:06.577Z,1.35
2024-03-02T17:11:34.929Z,1.55
2024-03-02T17:14:04.458Z,1.52
2024-03-02T17:16:33.002Z,1.60
2024-03-02T17:19:00.923Z,1.67
2024-03-02T17:21:28.897Z,1.73
2024-03-02T17:23:59.324Z,1.67
2024-03-02T17:26:27.305Z,1.40
2024-03-02T17:28:55.841Z,1.75
2024-03-02T17:31:27.087Z,1.48
2024-03-02T17:33:58.460Z,1.35
2024-03-02T17:36:26.413Z,2.10
2024-03-02T17:38:54.400Z,1.70
2024-03-02T17:41:23.696Z,1.77
2024-03-02T17:43:51.675Z,1.88
2024-03-02T17:46:19.581Z,1.83
2024-03-02T17:48:47.700Z,1.60
2024-03-02T17:51:16.796Z,1.65
2024-03-02T17:53:44.633Z,1.63
2024-03-02T17:56:13.166Z,1.45
2024-03-02T17:58:42.433Z,2.20
2024-03-02T18:01:12.395Z,1.90
2024-03-02T18:03:40.324Z,1.63
2024-03-02T18:06:09.761Z,1.80
2024-03-02T18:08:39.231Z,2.00
2024-03-02T18:11:08.762Z,1.85
2024-03-02T18:13:37.445Z,3.17
2024-03-02T18:16:07.310Z,2.00
2024-03-02T18:18:35.275Z,1.77
2024-03-02T18:21:03.672Z,1.95
2024-03-02T18:23:31.817Z,1.65
2024-03-02T18:26:00.251Z,2.05
2024-03-02T18:28:28.452Z,1.77
2024-03-02T18:30:56.760Z,1.60
2024-03-02T18:33:26.198Z,1.90
2024-03-02T18:35:54.062Z,2.20
2024-03-02T18:38:21.886Z,2.92
2024-03-02T18:40:49.889Z,2.63
2024-03-02T18:43:17.965Z,2.40
2024-03-02T18:45:46.135Z,2.47
2024-03-02T18:48:14.303Z,3.30
2024-03-02T18:50:43.585Z,3.00
2024-03-02T18:53:13.990Z,2.90
2024-03-02T18:55:42.835Z,3.42
2024-03-02T18:58:10.909Z,3.55
2024-03-02T19:00:39.611Z,3.08
2024-03-02T19:03:11.014Z,3.40
2024-03-02T19:05:40.304Z,2.70
2024-03-02T19:08:14.464Z,3.00
2024-03-02T19:10:42.831Z,2.78
2024-03-02T19:13:10.954Z,2.92
2024-03-02T19:15:47.669Z,2.97
2024-03-02T19:18:18.103Z,2.28
2024-03-02T19:20:47.584Z,3.25
2024-03-02T19:23:28.999Z,2.95
2024-03-02T19:26:00.618Z,2.65
2024-03-02T19:28:28.449Z,2.92
2024-03-02T19:30:56.397Z,2.40
2024-03-02T19:33:24.245Z,2.90
2024-03-02T19:35:52.115Z,2.72
2024-03-02T19:38:21.230Z,3.17
2024-03-02T19:40:49.550Z,2.97
2024-03-02T19:43:18.958Z,2.95
2024-03-02T19:45:47.023Z,3.28
2024-03-02T19:48:18.283Z,2.90
2024-03-02T19:50:46.297Z,2.78
2024-03-02T19:53:14.120Z,2.13
2024-03-02T19:55:45.386Z,2.38
2024-03-02T19:58:13.357Z,2.15
2024-03-02T20:00:41.584Z,2.60
2024-03-02T20:03:09.485Z,2.50
2024-03-02T20:05:38.852Z,2.78
2024-03-02T20:08:08.514Z,3.05
2024-03-02T20:10:36.399Z,2.55
2024-03-02T20:13:07.160Z,2.35
2024-03-02T20:15:35.172Z,2.42
2024-03-02T20:18:03.247Z,2.40
2024-03-02T20:20:31.175Z,2.63
2024-03-02T20:22:59.025Z,2.25
2024-03-02T20:25:26.848Z,2.25
2024-03-02T20:27:54.858Z,2.53
2024-03-02T20:30:23.992Z,3.08
2024-03-02T20:32:52.477Z,2.88
2024-03-02T20:35:20.472Z,3.15
2024-03-02T20:37:48.385Z,2.63
2024-03-02T20:40:20.227Z,2.72
2024-03-02T20:42:48.754Z,2.20
2024-03-02T20:45:19.684Z,2.45
2024-03-02T20:47:49.235Z,2.33
2024-03-02T20:50:17.931Z,2.42
2024-03-02T20:52:50.326Z,2.42
2024-03-02T20:55:19.032Z,2.58
2024-03-02T20:57:47.728Z,2.60
2024-03-02T21:00:16.684Z,2.55
2024-03-02T21:02:45.983Z,2.50
2024-03-02T21:05:26.805Z,2.60
2024-03-02T21:08:11.940Z,2.80
2024-03-02T21:10:40.605Z,2.08
2024-03-02T21:13:08.487Z,2.40
2024-03-02T21:15:37.073Z,2.55
2024-03-02T21:18:05.059Z,2.80
2024-03-02T21:20:34.260Z,2.30
2024-03-02T21:23:02.443Z,2.30
2024-03-02T21:25:35.013Z,2.60
2024-03-02T21:28:04.638Z,2.38
2024-03-02T21:30:35.777Z,2.38
2024-03-02T21:33:04.890Z,2.47
2024-03-02T21:35:34.119Z,2.55
2024-03-02T21:38:04.046Z,2.33
2024-03-02T21:40:32.526Z,2.60
2024-03-02T21:43:00.893Z,3.05
2024-03-02T21:45:28.764Z,2.20
2024-03-02T21:47:56.662Z,2.40
2024-03-02T21:50:28.847Z,2.72
2024-03-02T21:52:59.790Z,1.88
2024-03-02T21:55:28.229Z,2.40
2024-03-02T21:57:56.397Z,2.45
2024-03-02T22:00:25.474Z,2.00
2024-03-02T22:02:56.020Z,2.03
2024-03-02T22:05:25.668Z,3.42
2024-03-02T22:07:55.802Z,3.50
2024-03-02T22:12:53.316Z,2.83
2024-03-02T22:15:21.096Z,2.45
2024-03-02T22:17:49.887Z,2.90
2024-03-02T22:20:17.666Z,2.63
2024-03-02T22:22:45.524Z,2.53
2024-03-02T22:25:13.414Z,2.33
2024-03-02T22:27:42.840Z,2.85
2024-03-02T22:30:11.510Z,2.65
2024-03-02T22:32:39.318Z,2.58
2024-03-02T22:35:08.365Z,2.30
2024-03-02T22:37:36.180Z,1.95
2024-03-02T22:40:04.168Z,2.28
2024-03-02T22:42:33.822Z,2.67
2024-03-02T22:45:03.786Z,2.33
2024-03-02T22:47:31.566Z,2.55
2024-03-02T22:49:59.770Z,2.72
2024-03-02T22:52:27.542Z,2.67
2024-03-02T22:54:55.350Z,2.78
2024-03-02T22:57:23.084Z,3.65
2024-03-02T22:59:51.392Z,3.70
2024-03-02T23:02:21.291Z,3.03
2024-03-02T23:04:49.124Z,2.80
2024-03-02T23:07:20.211Z,2.25
2024-03-02T23:09:48.377Z,2.15
2024-03-02T23:12:16.395Z,2.42
2024-03-02T23:14:44.240Z,2.45
2024-03-02T23:17:12.319Z,2.38
2024-03-02T23:19:41.459Z,3.03
2024-03-02T23:22:09.686Z,2.28
2024-03-02T23:24:37.529Z,2.65
2024-03-02T23:27:05.584Z,2.50
2024-03-02T23:29:33.634Z,2.28
2024-03-02T23:32:01.470Z,2.60
2024-03-02T23:34:30.766Z,2.47
2024-03-02T23:36:59.920Z,2.33
2024-03-02T23:39:41.638Z,2.30
2024-03-02T23:42:11.211Z,2.40
2024-03-02T23:44:38.962Z,2.20
2024-03-02T23:47:08.820Z,2.63
2024-03-02T23:49:36.561Z,2.33
2024-03-02T23:52:06.205Z,2.22
2024-03-02T23:54:34.028Z,2.65
2024-03-02T23:57:01.831Z,2.33
2024-03-02T23:59:30.947Z,2.38
